Utah State University
, Logan
Last Weather Update:07/30/2011 11:00:00 PM
Date
ETo
ETc
Rain
Irrigation
Req
Temp
Max
Temp
Min
Temp
Avg
Avg RH
Avg Wind
Avg Solar
inches
inches
incehs
inches
F
F
F
%
%
watts/m2
06/01/2011 0.26" 0.21" 0.00" 0.21" 77.5° 49.2° 65.2° 23.5% 6.7 MPH 297.2w/m2
06/02/2011 0.16" 0.13" 0.00" 0.13" 69.2° 41.2° 53.4° 40.0% 2.7 MPH 261.2w/m2
06/03/2011 0.19" 0.15" 0.00" 0.15" 63.3° 38.1° 50.4° 47.0% 1.6 MPH 359.6w/m2
06/04/2011 0.21" 0.17" 0.00" 0.17" 77.8° 43.6° 60.5° 33.9% 2.5 MPH 341.6w/m2
06/05/2011 0.26" 0.21" 0.00" 0.21" 83.6° 52.8° 67.7° 29.9% 4.7 MPH 357.3w/m2
06/06/2011 0.19" 0.15" 0.07" 0.09" 81.4° 52.5° 62.1° 40.6% 5.9 MPH 212.0w/m2
06/07/2011 0.14" 0.11" 0.42" -0.22" 67.8° 51.6° 57.9° 52.5% 2.5 MPH 213.0w/m2
06/08/2011 0.17" 0.14" 0.22" -0.04" 72.7° 46.8° 54.7° 67.0% 3.7 MPH 282.7w/m2
06/09/2011 0.12" 0.09" 0.12" 0.00" 62.1° 42.0° 50.1° 69.6% 3.0 MPH 214.8w/m2
06/10/2011 0.20" 0.16" 0.00" 0.16" 71.4° 40.5° 56.1° 51.4% 4.0 MPH 332.6w/m2
06/11/2011 0.19" 0.15" 0.02" 0.14" 74.2° 51.0° 62.4° 54.4% 3.2 MPH 289.5w/m2
06/12/2011 0.13" 0.10" 0.00" 0.10" 71.7° 52.8° 60.5° 60.1% 1.9 MPH 197.9w/m2
06/13/2011 0.10" 0.08" 0.16" -0.05" 69.9° 51.2° 56.4° 69.5% 4.6 MPH 142.5w/m2
06/14/2011 0.22" 0.18" 0.00" 0.18" 72.9° 46.8° 60.7° 54.4% 2.1 MPH 353.5w/m2
06/15/2011 0.25" 0.20" 0.01" 0.19" 81.1° 49.1° 64.7° 46.4% 4.6 MPH 320.9w/m2
06/16/2011 0.14" 0.11" 0.00" 0.11" 64.2° 44.1° 54.1° 53.5% 2.6 MPH 230.9w/m2
06/17/2011 0.22" 0.17" 0.00" 0.17" 68.8° 39.4° 54.1° 45.9% 3.9 MPH 357.0w/m2
06/18/2011 0.20" 0.16" 0.03" 0.13" 74.9° 46.5° 60.4° 42.2% 4.6 MPH 271.1w/m2
06/19/2011 0.09" 0.07" 0.28" -0.15" 62.3° 47.9° 53.6° 82.2% 1.1 MPH 152.9w/m2
06/20/2011 0.18" 0.15" 0.01" 0.14" 72.0° 46.8° 58.9° 59.7% 2.5 MPH 309.1w/m2
06/21/2011 0.23" 0.18" 0.00" 0.18" 78.3° 48.3° 63.3° 51.9% 4.4 MPH 347.3w/m2
06/22/2011 0.25" 0.20" 0.00" 0.20" 86.3° 53.1° 68.9° 45.3% 5.0 MPH 349.7w/m2
06/23/2011 0.26" 0.20" 0.00" 0.20" 88.3° 59.7° 73.4° 40.3% 3.3 MPH 342.2w/m2
06/24/2011 0.24" 0.19" 0.02" 0.18" 83.2° 58.7° 70.1° 45.8% 3.2 MPH 342.5w/m2
06/25/2011 0.23" 0.18" 0.01" 0.17" 83.8° 54.6° 68.0° 44.6% 2.7 MPH 347.9w/m2
06/26/2011 0.23" 0.18" 0.03" 0.16" 78.7° 58.5° 67.9° 38.0% 2.3 MPH 345.8w/m2
06/27/2011 0.25" 0.20" 0.01" 0.19" 85.6° 52.2° 68.2° 36.8% 4.4 MPH 348.4w/m2
06/28/2011 0.30" 0.24" 0.01" 0.23" 91.5° 59.2° 76.3° 27.6% 6.6 MPH 330.9w/m2
06/29/2011 0.25" 0.20" 0.03" 0.18" 87.3° 68.5° 77.9° 28.2% 5.8 MPH 231.5w/m2
06/30/2011 0.23" 0.18" 0.00" 0.18" 82.0° 56.7° 68.9° 49.3% 2.3 MPH 345.0w/m2
Totals: 6.09" 4.87" 1.45" 3.71" 91.5° 38.1° 62.2° 47.7% 3.6 MPH 294.3w/m2